createdAt,value
2023-03-06T00:00:33.882Z,5.15
2023-03-06T00:03:00.604Z,4.53
2023-03-06T00:05:27.792Z,5.00
2023-03-06T00:07:54.419Z,5.45
2023-03-06T00:10:27.133Z,3.90
2023-03-06T00:12:55.643Z,5.15
2023-03-06T00:15:22.317Z,7.45
2023-03-06T00:17:48.691Z,5.22
2023-03-06T00:20:17.305Z,6.40
2023-03-06T00:22:43.626Z,4.05
2023-03-06T00:25:15.830Z,5.68
2023-03-06T00:27:42.418Z,6.90
2023-03-06T00:30:12.907Z,4.85
2023-03-06T00:32:39.284Z,5.75
2023-03-06T00:35:08.450Z,7.72
2023-03-06T00:37:34.815Z,6.68
2023-03-06T00:40:01.354Z,7.93
2023-03-06T00:42:34.385Z,7.90
2023-03-06T00:45:05.785Z,8.38
2023-03-06T00:47:32.572Z,8.63
2023-03-06T00:49:58.865Z,10.68
2023-03-06T00:52:27.636Z,8.45
2023-03-06T00:54:54.194Z,7.45
2023-03-06T00:57:22.682Z,8.40
2023-03-06T00:59:49.014Z,7.03
2023-03-06T01:02:20.291Z,8.68
2023-03-06T01:04:47.111Z,8.52
2023-03-06T01:07:18.331Z,8.30
2023-03-06T01:09:44.625Z,11.13
2023-03-06T01:12:10.976Z,11.60
2023-03-06T01:14:37.508Z,9.48
2023-03-06T01:17:07.390Z,10.70
2023-03-06T01:19:33.666Z,10.63
2023-03-06T01:21:59.983Z,10.65
2023-03-06T01:24:28.486Z,11.02
2023-03-06T01:26:54.893Z,10.65
2023-03-06T01:29:21.246Z,11.13
2023-03-06T01:31:47.762Z,9.52
2023-03-06T01:34:14.250Z,12.75
2023-03-06T01:36:40.600Z,12.30
2023-03-06T01:39:06.909Z,10.88
2023-03-06T01:41:33.254Z,9.73
2023-03-06T01:44:02.720Z,10.48
2023-03-06T01:46:35.928Z,12.15
2023-03-06T01:49:08.255Z,12.18
2023-03-06T01:51:48.955Z,11.50
2023-03-06T01:54:26.969Z,11.13
2023-03-06T01:56:58.484Z,12.70
2023-03-06T01:59:30.274Z,12.93
2023-03-06T02:01:59.246Z,12.35
2023-03-06T02:04:25.654Z,14.18
2023-03-06T02:06:52.210Z,14.68
2023-03-06T02:09:18.662Z,14.00
2023-03-06T02:11:45.033Z,13.18
2023-03-06T02:14:14.735Z,15.38
2023-03-06T02:16:49.458Z,18.48
2023-03-06T02:19:50.170Z,14.43
2023-03-06T02:22:18.942Z,13.98
2023-03-06T02:25:36.072Z,14.35
2023-03-06T02:28:03.216Z,16.55
2023-03-06T02:30:30.078Z,16.60
2023-03-06T02:32:57.134Z,15.30
2023-03-06T02:35:32.014Z,16.83
2023-03-06T02:38:05.878Z,17.45
2023-03-06T02:40:32.255Z,15.32
2023-03-06T02:43:01.188Z,19.17
2023-03-06T02:45:38.509Z,15.98
2023-03-06T02:48:08.403Z,16.10
2023-03-06T02:50:36.228Z,17.05
2023-03-06T02:53:03.835Z,16.38
2023-03-06T02:55:30.232Z,16.50
2023-03-06T02:57:56.619Z,17.95
2023-03-06T03:00:23.236Z,16.23
2023-03-06T03:02:52.239Z,19.02
2023-03-06T03:05:18.549Z,18.48
2023-03-06T03:07:45.038Z,17.75
2023-03-06T03:10:12.374Z,20.15
2023-03-06T03:12:40.568Z,19.25
2023-03-06T03:15:07.883Z,17.20
2023-03-06T03:17:42.256Z,19.35
2023-03-06T03:20:12.496Z,20.58
2023-03-06T03:22:39.006Z,19.27
2023-03-06T03:25:07.107Z,15.93
2023-03-06T03:27:33.744Z,19.45
2023-03-06T03:30:00.722Z,17.20
2023-03-06T03:32:27.251Z,16.17
2023-03-06T03:34:57.369Z,20.08
2023-03-06T03:37:26.533Z,19.80
2023-03-06T03:39:52.905Z,14.57
2023-03-06T03:42:20.563Z,15.43
2023-03-06T03:44:49.797Z,21.92
2023-03-06T03:47:20.523Z,15.18
2023-03-06T03:49:46.851Z,15.85
2023-03-06T03:52:13.219Z,15.80
2023-03-06T03:54:39.605Z,17.42
2023-03-06T03:57:06.055Z,14.55
2023-03-06T03:59:32.417Z,15.40
2023-03-06T04:02:01.826Z,17.38
2023-03-06T04:04:28.245Z,14.10
2023-03-06T04:06:54.626Z,14.70
2023-03-06T04:09:21.017Z,15.07
2023-03-06T04:11:47.318Z,15.00
2023-03-06T04:14:13.697Z,12.65
2023-03-06T04:16:40.110Z,16.13
2023-03-06T04:19:09.235Z,16.90
2023-03-06T04:21:35.611Z,16.65
2023-03-06T04:24:02.030Z,13.63
2023-03-06T04:26:28.400Z,13.82
2023-03-06T04:28:57.573Z,14.60
2023-03-06T04:31:23.944Z,17.30
2023-03-06T04:33:50.287Z,21.55
2023-03-06T04:36:29.177Z,16.63
2023-03-06T04:38:56.129Z,15.57
2023-03-06T04:41:23.381Z,19.30
2023-03-06T04:43:50.406Z,15.82
2023-03-06T04:46:17.157Z,15.57
2023-03-06T04:48:44.106Z,17.65
2023-03-06T04:51:12.822Z,18.23
2023-03-06T04:53:41.632Z,16.65
2023-03-06T04:56:08.370Z,17.88
2023-03-06T04:58:34.758Z,18.27
2023-03-06T05:01:01.123Z,17.60
2023-03-06T05:03:31.188Z,16.88
2023-03-06T05:05:58.231Z,16.08
2023-03-06T05:08:25.638Z,17.83
2023-03-06T05:11:02.247Z,17.38
2023-03-06T05:13:30.115Z,17.65
2023-03-06T05:16:02.147Z,14.60
2023-03-06T05:18:28.429Z,15.23
2023-03-06T05:20:54.732Z,14.85
2023-03-06T05:23:23.395Z,15.75
2023-03-06T05:25:51.835Z,14.50
2023-03-06T05:28:18.231Z,13.00
2023-03-06T05:30:44.736Z,16.20
2023-03-06T05:33:11.108Z,14.20
2023-03-06T05:35:39.886Z,12.75
2023-03-06T05:38:06.278Z,11.70
2023-03-06T05:40:32.700Z,16.67
2023-03-06T05:42:59.142Z,10.73
2023-03-06T05:45:25.527Z,12.90
2023-03-06T05:47:51.982Z,10.45
2023-03-06T05:50:20.410Z,9.60
2023-03-06T05:52:46.795Z,10.70
2023-03-06T05:55:15.673Z,11.57
2023-03-06T05:57:42.244Z,10.07
2023-03-06T06:00:12.454Z,9.52
2023-03-06T06:02:38.967Z,11.32
2023-03-06T06:05:07.367Z,9.32
2023-03-06T06:07:34.000Z,11.15
2023-03-06T06:10:02.389Z,9.80
2023-03-06T06:12:33.952Z,15.77
2023-03-06T06:15:01.561Z,10.40
2023-03-06T06:17:28.931Z,11.07
2023-03-06T06:19:57.689Z,10.27
2023-03-06T06:22:24.737Z,12.85
2023-03-06T06:24:54.272Z,11.55
2023-03-06T06:27:22.183Z,11.20
2023-03-06T06:29:52.280Z,9.70
2023-03-06T06:32:22.239Z,11.98
2023-03-06T06:34:48.850Z,9.32
2023-03-06T06:37:23.124Z,10.82
2023-03-06T06:39:52.312Z,8.95
2023-03-06T06:42:31.415Z,9.45
2023-03-06T06:45:02.526Z,8.63
2023-03-06T06:47:32.090Z,7.15
2023-03-06T06:49:58.455Z,5.32
2023-03-06T06:52:25.087Z,6.32
2023-03-06T06:54:56.016Z,6.68
2023-03-06T06:57:22.501Z,4.78
2023-03-06T06:59:50.128Z,5.00
2023-03-06T07:02:17.842Z,3.78
2023-03-06T07:05:01.956Z,3.45
2023-03-06T07:07:35.251Z,2.97
2023-03-06T07:10:04.586Z,3.35
2023-03-06T07:12:33.321Z,2.42
2023-03-06T07:14:59.642Z,3.58
2023-03-06T07:17:28.860Z,3.00
2023-03-06T07:19:55.191Z,3.53
2023-03-06T07:22:23.990Z,2.97
2023-03-06T07:24:52.684Z,1.88
2023-03-06T07:27:19.029Z,2.20
2023-03-06T07:29:47.830Z,3.47
2023-03-06T07:32:15.665Z,2.72
2023-03-06T07:34:42.039Z,2.80
2023-03-06T07:37:11.250Z,1.88
2023-03-06T07:39:39.762Z,1.85
2023-03-06T07:42:08.247Z,2.30
2023-03-06T07:44:40.845Z,3.10
2023-03-06T07:47:09.509Z,2.33
2023-03-06T07:49:35.917Z,2.85
2023-03-06T07:52:02.386Z,1.88
2023-03-06T07:54:31.248Z,3.08
2023-03-06T07:56:57.631Z,2.60
2023-03-06T07:59:24.157Z,1.60
2023-03-06T08:01:51.124Z,1.95
2023-03-06T08:04:21.107Z,2.25
2023-03-06T08:06:48.008Z,2.97
2023-03-06T08:09:17.498Z,1.60
2023-03-06T08:11:44.916Z,2.10
2023-03-06T08:14:12.138Z,1.30
2023-03-06T08:16:45.268Z,1.33
2023-03-06T08:19:11.746Z,1.10
2023-03-06T08:21:38.534Z,2.38
2023-03-06T08:24:08.647Z,1.00
2023-03-06T08:26:36.655Z,1.15
2023-03-06T08:29:06.497Z,1.52
2023-03-06T08:31:39.235Z,1.45
2023-03-06T08:34:09.926Z,1.63
2023-03-06T08:39:06.891Z,0.93
2023-03-06T08:41:34.591Z,1.15
2023-03-06T08:44:02.033Z,1.42
2023-03-06T08:46:32.782Z,1.17
2023-03-06T08:49:00.707Z,2.78
2023-03-06T08:51:29.454Z,1.67
2023-03-06T08:54:04.942Z,2.25
2023-03-06T08:56:35.166Z,1.75
2023-03-06T08:59:03.879Z,2.28
2023-03-06T09:01:38.672Z,2.55
2023-03-06T09:04:10.561Z,0.93
2023-03-06T09:06:39.836Z,1.73
2023-03-06T09:09:11.465Z,1.17
2023-03-06T09:11:38.784Z,0.90
2023-03-06T09:14:05.787Z,1.38
2023-03-06T09:16:32.602Z,2.25
2023-03-06T09:18:59.007Z,1.05
2023-03-06T09:21:30.058Z,1.10
2023-03-06T09:23:56.768Z,2.22
2023-03-06T09:26:39.679Z,1.55
2023-03-06T09:29:11.302Z,2.47
2023-03-06T09:31:40.059Z,0.80
2023-03-06T09:34:06.550Z,1.38
2023-03-06T09:36:42.760Z,0.80
2023-03-06T09:39:15.812Z,2.50
2023-03-06T09:41:42.220Z,2.28
2023-03-06T09:44:39.626Z,2.20
2023-03-06T09:47:40.547Z,2.60
2023-03-06T09:50:13.217Z,0.90
2023-03-06T09:53:01.605Z,0.75
2023-03-06T09:58:18.841Z,0.57
2023-03-06T10:00:57.454Z,1.50
2023-03-06T10:03:48.110Z,1.35
2023-03-06T10:06:39.206Z,0.75
2023-03-06T10:09:14.732Z,0.98
2023-03-06T10:11:57.088Z,0.63
2023-03-06T10:17:10.742Z,0.63
2023-03-06T10:19:46.312Z,0.90
2023-03-06T10:22:24.428Z,1.67
2023-03-06T10:24:57.402Z,1.70
2023-03-06T10:27:44.690Z,1.50
2023-03-06T10:30:35.893Z,1.77
2023-03-06T10:33:12.306Z,1.45
2023-03-06T10:38:19.259Z,0.40
2023-03-06T10:40:58.398Z,0.57
2023-03-06T10:43:27.629Z,2.67
2023-03-06T10:45:53.951Z,1.65
2023-03-06T10:48:31.762Z,1.05
2023-03-06T10:51:24.941Z,0.82
2023-03-06T10:54:17.563Z,1.25
2023-03-06T10:56:46.435Z,1.00
2023-03-06T10:59:24.816Z,0.68
2023-03-06T11:02:13.494Z,0.93
2023-03-06T11:04:41.325Z,0.85
2023-03-06T11:07:54.736Z,0.60
2023-03-06T11:10:21.183Z,1.45
2023-03-06T11:13:05.295Z,1.02
2023-03-06T11:15:32.976Z,3.40
2023-03-06T11:18:27.149Z,0.70
2023-03-06T11:23:40.012Z,0.50
2023-03-06T11:26:15.517Z,0.40
2023-03-06T11:29:06.744Z,2.28
2023-03-06T11:31:47.929Z,1.42
2023-03-06T11:34:18.754Z,1.35
2023-03-06T11:36:54.860Z,1.23
2023-03-06T11:39:35.606Z,1.02
2023-03-06T11:42:23.932Z,1.08
2023-03-06T11:47:45.837Z,2.55
2023-03-06T11:51:06.385Z,1.83
2023-03-06T11:53:39.307Z,3.05
2023-03-06T11:56:20.651Z,2.78
2023-03-06T11:59:07.505Z,3.92
2023-03-06T12:02:01.643Z,2.15
2023-03-06T12:04:44.942Z,2.00
2023-03-06T12:07:34.737Z,1.77
2023-03-06T12:10:19.908Z,2.38
2023-03-06T12:13:15.208Z,2.30
2023-03-06T12:15:45.464Z,3.25
2023-03-06T12:18:30.654Z,4.30
2023-03-06T12:21:28.839Z,2.25
2023-03-06T12:24:04.439Z,5.32
2023-03-06T12:26:33.763Z,3.80
2023-03-06T12:29:34.712Z,4.03
2023-03-06T12:32:24.714Z,2.15
2023-03-06T12:35:06.432Z,2.28
2023-03-06T12:38:11.859Z,2.50
2023-03-06T12:41:04.301Z,4.45
2023-03-06T12:44:01.976Z,3.05
2023-03-06T12:46:28.533Z,2.78
2023-03-06T12:49:03.210Z,2.97
2023-03-06T12:51:35.383Z,3.17
2023-03-06T12:54:05.809Z,4.20
2023-03-06T12:56:34.541Z,3.70
2023-03-06T12:59:01.503Z,2.70
2023-03-06T13:01:48.871Z,3.55
2023-03-06T13:04:45.751Z,4.85
2023-03-06T13:07:24.788Z,4.68
2023-03-06T13:10:09.255Z,5.95
2023-03-06T13:12:55.721Z,4.18
2023-03-06T13:15:36.162Z,4.93
2023-03-06T13:18:22.500Z,7.35
2023-03-06T13:20:49.516Z,5.47
2023-03-06T13:23:52.380Z,6.55
2023-03-06T13:26:24.771Z,5.93
2023-03-06T13:28:55.379Z,6.00
2023-03-06T13:34:03.628Z,5.57
2023-03-06T13:36:36.701Z,5.57
2023-03-06T13:39:11.970Z,10.80
2023-03-06T13:41:53.416Z,8.90
2023-03-06T13:44:25.881Z,8.15
2023-03-06T13:47:07.293Z,8.45
2023-03-06T13:49:35.289Z,8.80
2023-03-06T13:52:13.034Z,8.43
2023-03-06T13:54:57.594Z,11.82
2023-03-06T13:57:37.905Z,8.50
2023-03-06T14:00:25.746Z,7.70
2023-03-06T14:03:10.398Z,10.23
2023-03-06T14:05:45.059Z,10.25
2023-03-06T14:08:31.481Z,10.05
2023-03-06T14:11:02.540Z,8.50
2023-03-06T14:13:46.571Z,9.48
2023-03-06T14:16:20.126Z,8.05
2023-03-06T14:18:49.916Z,7.63
2023-03-06T14:21:27.704Z,7.95
2023-03-06T14:24:00.558Z,9.63
2023-03-06T14:26:32.384Z,7.53
2023-03-06T14:29:00.476Z,12.20
2023-03-06T14:31:31.020Z,7.68
2023-03-06T14:34:03.237Z,7.53
2023-03-06T14:36:45.683Z,7.03
2023-03-06T14:39:15.316Z,6.97
2023-03-06T14:41:41.701Z,6.15
2023-03-06T14:44:24.925Z,7.05
2023-03-06T14:46:56.984Z,6.50
2023-03-06T14:49:25.144Z,7.00
2023-03-06T14:51:57.811Z,6.00
2023-03-06T14:54:37.036Z,5.07
2023-03-06T14:57:13.969Z,6.03
2023-03-06T14:59:55.996Z,5.38
2023-03-06T15:02:26.332Z,6.78
2023-03-06T15:04:57.279Z,6.22
2023-03-06T15:07:29.064Z,5.65
2023-03-06T15:09:59.198Z,4.95
2023-03-06T15:12:28.354Z,4.28
2023-03-06T15:15:08.556Z,5.30
2023-03-06T15:17:43.708Z,4.20
2023-03-06T15:20:37.985Z,3.25
2023-03-06T15:23:17.822Z,3.13
2023-03-06T15:25:54.325Z,5.10
2023-03-06T15:28:30.172Z,4.88
2023-03-06T15:31:20.356Z,4.10
2023-03-06T15:34:08.681Z,5.55
2023-03-06T15:36:41.133Z,6.18
2023-03-06T15:39:32.087Z,5.82
2023-03-06T15:41:59.186Z,5.45
2023-03-06T15:44:25.937Z,12.35
2023-03-06T15:46:59.265Z,12.10
2023-03-06T15:49:32.938Z,12.02
2023-03-06T15:51:59.312Z,9.05
2023-03-06T15:54:25.632Z,8.02
2023-03-06T15:56:53.243Z,8.95
2023-03-06T15:59:24.026Z,8.50
2023-03-06T16:01:51.898Z,9.23
2023-03-06T16:04:19.085Z,8.77
2023-03-06T16:06:45.922Z,10.60
2023-03-06T16:09:15.792Z,13.07
2023-03-06T16:11:44.209Z,11.82
2023-03-06T16:14:18.604Z,16.20
2023-03-06T16:16:44.973Z,10.93
2023-03-06T16:19:26.078Z,15.73
2023-03-06T16:21:54.270Z,12.15
2023-03-06T16:24:20.610Z,17.55
2023-03-06T16:26:49.445Z,16.95
2023-03-06T16:29:18.005Z,19.17
2023-03-06T16:31:44.663Z,15.73
2023-03-06T16:34:14.436Z,17.98
2023-03-06T16:36:41.563Z,15.45
2023-03-06T16:39:13.527Z,14.57
2023-03-06T16:41:42.235Z,17.55
2023-03-06T16:44:08.940Z,20.50
2023-03-06T16:46:39.078Z,13.40
2023-03-06T16:49:06.096Z,18.55
2023-03-06T16:51:32.433Z,17.88
2023-03-06T16:54:01.053Z,23.00
2023-03-06T16:56:29.780Z,18.33
2023-03-06T16:58:56.133Z,19.73
2023-03-06T17:01:22.652Z,14.73
2023-03-06T17:03:49.197Z,17.85
2023-03-06T17:06:17.916Z,23.02
2023-03-06T17:08:45.255Z,21.08
2023-03-06T17:11:12.837Z,17.80
2023-03-06T17:13:42.214Z,17.15
2023-03-06T17:16:12.383Z,21.30
2023-03-06T17:18:43.147Z,20.05
2023-03-06T17:21:09.670Z,22.50
2023-03-06T17:23:37.369Z,20.48
2023-03-06T17:26:17.689Z,28.13
2023-03-06T17:28:45.472Z,22.20
2023-03-06T17:31:34.954Z,21.10
2023-03-06T17:34:03.109Z,17.63
2023-03-06T17:36:31.216Z,21.52
2023-03-06T17:38:59.658Z,16.48
2023-03-06T17:41:28.988Z,17.50
2023-03-06T17:43:56.229Z,20.33
2023-03-06T17:46:24.266Z,21.17
2023-03-06T17:48:50.692Z,15.73
2023-03-06T17:51:21.214Z,14.27
2023-03-06T17:53:47.818Z,13.88
2023-03-06T17:56:16.579Z,18.50
2023-03-06T17:58:45.438Z,20.15
2023-03-06T18:01:17.726Z,16.60
2023-03-06T18:03:46.576Z,18.38
2023-03-06T18:06:13.477Z,18.55
2023-03-06T18:08:43.032Z,19.08
2023-03-06T18:11:11.225Z,16.02
2023-03-06T18:13:42.564Z,17.08
2023-03-06T18:16:11.307Z,21.05
2023-03-06T18:18:40.690Z,16.35
2023-03-06T18:21:11.818Z,22.38
2023-03-06T18:23:45.481Z,22.52
2023-03-06T18:26:33.227Z,22.60
2023-03-06T18:29:04.032Z,23.05
2023-03-06T18:34:28.994Z,22.60
2023-03-06T18:36:55.578Z,24.13
2023-03-06T18:39:28.037Z,23.30
2023-03-06T18:41:54.394Z,25.00
2023-03-06T18:44:21.075Z,14.35
2023-03-06T18:46:47.672Z,27.02
2023-03-06T18:49:14.366Z,21.13
2023-03-06T18:51:40.810Z,20.08
2023-03-06T18:54:08.699Z,21.35
2023-03-06T18:56:36.217Z,18.45
2023-03-06T18:59:04.848Z,17.45
2023-03-06T19:01:33.429Z,23.85
2023-03-06T19:04:05.180Z,21.65
2023-03-06T19:06:31.892Z,24.63
2023-03-06T19:09:02.882Z,18.25
2023-03-06T19:11:34.250Z,23.88
2023-03-06T19:14:01.173Z,26.30
2023-03-06T19:16:29.351Z,19.67
2023-03-06T19:19:01.195Z,20.88
2023-03-06T19:21:28.257Z,21.90
2023-03-06T19:23:57.818Z,23.90
2023-03-06T19:26:28.892Z,27.48
2023-03-06T19:28:55.721Z,31.85
2023-03-06T19:31:28.686Z,27.58
2023-03-06T19:34:00.925Z,24.83
2023-03-06T19:36:28.836Z,32.28
2023-03-06T19:38:59.636Z,31.75
2023-03-06T19:43:59.797Z,28.65
2023-03-06T19:46:27.039Z,27.92
2023-03-06T19:48:58.677Z,27.27
2023-03-06T19:51:28.316Z,19.55
2023-03-06T19:53:56.682Z,32.35
2023-03-06T19:56:25.675Z,26.30
2023-03-06T19:58:52.930Z,28.83
2023-03-06T20:01:26.074Z,27.45
2023-03-06T20:03:57.268Z,27.75
2023-03-06T20:06:24.776Z,29.20
2023-03-06T20:08:51.354Z,31.17
2023-03-06T20:11:23.015Z,39.28
2023-03-06T20:13:50.032Z,31.98
2023-03-06T20:16:28.072Z,20.23
2023-03-06T20:18:56.844Z,32.05
2023-03-06T20:21:23.586Z,33.20
2023-03-06T20:23:54.147Z,38.80
2023-03-06T20:26:20.762Z,28.15
2023-03-06T20:28:51.959Z,28.65
2023-03-06T20:31:20.602Z,29.85
2023-03-06T20:33:50.554Z,30.10
2023-03-06T20:36:24.092Z,34.25
2023-03-06T20:38:50.514Z,29.67
2023-03-06T20:41:25.390Z,31.20
2023-03-06T20:43:52.655Z,35.88
2023-03-06T20:46:23.408Z,28.15
2023-03-06T20:48:52.152Z,38.50
2023-03-06T20:51:22.906Z,36.17
2023-03-06T20:53:51.068Z,28.50
2023-03-06T20:56:20.301Z,31.13
2023-03-06T20:58:47.124Z,34.63
2023-03-06T21:01:28.308Z,30.42
2023-03-06T21:03:55.624Z,40.15
2023-03-06T21:06:22.868Z,29.42
2023-03-06T21:08:56.093Z,35.80
2023-03-06T21:11:22.409Z,36.13
2023-03-06T21:13:50.058Z,26.15
2023-03-06T21:16:20.132Z,30.50
2023-03-06T21:18:47.061Z,27.08
2023-03-06T21:21:19.092Z,32.20
2023-03-06T21:23:46.740Z,26.27
2023-03-06T21:26:16.475Z,37.50
2023-03-06T21:28:43.709Z,38.50
2023-03-06T21:31:14.753Z,32.33
2023-03-06T21:33:44.139Z,35.30
2023-03-06T21:36:10.586Z,35.38
2023-03-06T21:38:39.830Z,37.17
2023-03-06T21:41:18.467Z,34.80
2023-03-06T21:43:47.307Z,28.02
2023-03-06T21:46:13.842Z,28.70
2023-03-06T21:48:42.469Z,34.88
2023-03-06T21:51:17.300Z,24.80
2023-03-06T21:53:44.683Z,28.77
2023-03-06T21:56:12.229Z,24.08
2023-03-06T21:58:38.614Z,21.27
2023-03-06T22:01:09.912Z,19.10
2023-03-06T22:03:41.079Z,23.45
2023-03-06T22:06:12.771Z,21.40
2023-03-06T22:08:50.883Z,18.15
2023-03-06T22:11:20.903Z,17.45
2023-03-06T22:13:48.273Z,18.00
2023-03-06T22:16:15.054Z,17.13
2023-03-06T22:18:49.358Z,16.17
2023-03-06T22:21:23.670Z,10.77
2023-03-06T22:23:51.742Z,10.57
2023-03-06T22:26:23.040Z,13.95
2023-03-06T22:28:53.107Z,17.35
2023-03-06T22:31:23.365Z,15.25
2023-03-06T22:33:51.617Z,9.05
2023-03-06T22:36:18.378Z,11.00
2023-03-06T22:38:46.632Z,13.63
2023-03-06T22:41:15.405Z,9.93
2023-03-06T22:43:42.443Z,8.00
2023-03-06T22:46:11.502Z,7.50
2023-03-06T22:48:37.904Z,8.68
2023-03-06T22:51:06.546Z,8.35
2023-03-06T22:53:33.808Z,7.40
2023-03-06T22:56:02.160Z,7.88
2023-03-06T22:58:29.960Z,7.32
2023-03-06T23:00:58.099Z,7.63
2023-03-06T23:03:26.709Z,6.80
2023-03-06T23:05:55.983Z,6.13
2023-03-06T23:08:22.360Z,6.97
2023-03-06T23:10:48.732Z,7.78
2023-03-06T23:13:17.553Z,6.78
2023-03-06T23:15:43.952Z,7.13
2023-03-06T23:18:12.810Z,8.73
2023-03-06T23:20:44.209Z,6.65
2023-03-06T23:23:17.505Z,7.47
2023-03-06T23:25:47.885Z,7.97
2023-03-06T23:28:16.894Z,7.80
2023-03-06T23:30:43.848Z,8.38
2023-03-06T23:33:13.221Z,10.32
2023-03-06T23:35:39.591Z,12.05
2023-03-06T23:38:08.965Z,10.95
2023-03-06T23:40:37.146Z,10.25
2023-03-06T23:43:03.579Z,10.82
2023-03-06T23:45:33.410Z,10.52
2023-03-06T23:47:59.757Z,14.90
2023-03-06T23:50:31.491Z,10.75
2023-03-06T23:52:59.133Z,12.30
2023-03-06T23:55:26.649Z,10.63
2023-03-06T23:57:53.011Z,10.77
